Time;durP1;ratioP1;P1;durP2;ratioP2;P2;SDS_P1;SDS_P2;PMS_P1;PMS_P2;Temp;Humidity;BMP_temperature;BMP_pressure;BME280_temperature;BME280_humidity;BME280_pressure;Samples;Min_cycle;Max_cycle;Signal;HPM_P1;HPM_P2
2022/06/19 00:00:29;;;;;;;8.45;2.75;;;;;;;16.53;64.15;100886.13;4995736;28;20172;-80
2022/06/19 00:02:54;;;;;;;8.18;2.95;;;;;;;16.51;63.34;100877.38;4995421;28;20455;-80
2022/06/19 00:05:20;;;;;;;12.20;2.92;;;;;;;16.46;63.77;100879.38;5012249;28;20526;-80
2022/06/19 00:07:45;;;;;;;7.95;2.28;;;;;;;16.40;63.74;100880.44;5012020;28;20057;-80
2022/06/19 00:10:11;;;;;;;10.10;2.83;;;;;;;16.37;63.56;100870.00;4995688;28;20479;-80
2022/06/19 00:12:36;;;;;;;9.57;2.83;;;;;;;16.33;64.39;100874.56;4995650;28;20033;-80
2022/06/19 00:15:03;;;;;;;6.70;2.00;;;;;;;16.34;65.27;100883.31;5011514;28;20100;-80
2022/06/19 00:17:28;;;;;;;8.55;2.72;;;;;;;16.32;65.30;100886.00;4995170;28;20030;-80
2022/06/19 00:19:53;;;;;;;8.63;2.53;;;;;;;16.32;64.77;100878.09;4995729;28;20018;-80
2022/06/19 00:22:19;;;;;;;6.47;2.40;;;;;;;16.26;64.65;100894.13;5028363;28;20036;-80
2022/06/19 00:24:44;;;;;;;7.30;2.83;;;;;;;16.28;66.13;100887.03;5011436;28;20045;-80
2022/06/19 00:27:10;;;;;;;7.90;2.50;;;;;;;16.30;66.15;100879.91;4995508;28;20052;-80
2022/06/19 00:29:36;;;;;;;11.55;2.50;;;;;;;16.31;65.37;100872.88;5012499;28;20626;-80
2022/06/19 00:32:04;;;;;;;6.75;2.20;;;;;;;16.29;65.18;100870.31;5011850;28;20497;-80
2022/06/19 00:34:31;;;;;;;6.93;2.30;;;;;;;16.29;65.06;100857.13;4995345;28;20109;-80
2022/06/19 00:37:00;;;;;;;5.47;2.03;;;;;;;16.25;64.65;100852.88;4996574;28;20088;-80
2022/06/19 00:39:26;;;;;;;8.95;2.10;;;;;;;16.18;64.27;100851.38;4996987;28;20026;-80
2022/06/19 00:41:52;;;;;;;8.32;2.50;;;;;;;16.15;64.07;100846.22;4996104;28;20103;-80
2022/06/19 00:44:17;;;;;;;11.07;2.58;;;;;;;16.08;64.40;100827.16;4996484;28;20450;-80
2022/06/19 00:47:08;;;;;;;9.73;2.67;;;;;;;16.02;64.08;100832.63;4995957;28;20026;-80
2022/06/19 00:50:03;;;;;;;9.32;2.67;;;;;;;16.01;64.84;100842.31;5012648;28;20025;-80
2022/06/19 00:52:33;;;;;;;;;;;;;;;16.03;65.25;100832.59;4996600;28;20061;-80
2022/06/19 00:55:02;;;;;;;9.25;2.10;;;;;;;16.02;64.58;100835.28;5012856;28;19921;-80
2022/06/19 00:57:30;;;;;;;9.60;2.40;;;;;;;15.98;65.13;100824.00;5012161;28;20022;-80
2022/06/19 01:00:00;;;;;;;11.55;2.75;;;;;;;15.98;64.97;100823.13;4996102;28;20053;-80
2022/06/19 01:02:26;;;;;;;5.85;1.75;;;;;;;15.96;65.82;100810.00;4995818;28;20124;-80
2022/06/19 01:04:53;;;;;;;8.00;2.13;;;;;;;15.99;66.83;100807.28;4995393;28;20112;-80
2022/06/19 01:07:22;;;;;;;8.38;2.20;;;;;;;16.01;65.94;100797.53;4998757;28;20076;-79
2022/06/19 01:09:51;;;;;;;11.90;2.50;;;;;;;16.00;66.16;100781.78;4998942;28;20113;-80
2022/06/19 01:12:17;;;;;;;10.10;2.67;;;;;;;15.99;65.18;100788.84;4999731;28;20068;-80
2022/06/19 01:14:44;;;;;;;11.18;2.63;;;;;;;15.95;65.40;100791.63;4999217;28;20479;-80
2022/06/19 01:17:11;;;;;;;10.27;2.72;;;;;;;15.94;65.31;100803.97;4998399;28;20108;-80
2022/06/19 01:19:39;;;;;;;7.70;2.08;;;;;;;15.93;65.29;100807.50;4998899;28;20091;-80
2022/06/19 01:22:43;;;;;;;9.23;2.28;;;;;;;15.88;64.88;100805.06;4998760;28;20045;-80
2022/06/19 01:25:12;;;;;;;7.20;2.00;;;;;;;15.89;65.53;100805.91;4997783;28;20026;-80
2022/06/19 01:30:29;;;;;;;10.25;2.25;;;;;;;15.85;63.71;100801.66;5015346;28;20347;-80
2022/06/19 01:32:56;;;;;;;8.60;2.08;;;;;;;15.83;64.56;100799.09;4998599;28;20108;-80
2022/06/19 01:35:23;;;;;;;6.70;2.03;;;;;;;15.86;65.50;100806.03;4998032;28;20025;-80
2022/06/19 01:37:49;;;;;;;8.55;1.80;;;;;;;15.87;65.18;100802.47;4998018;28;20093;-80
2022/06/19 01:40:23;;;;;;;6.55;1.70;;;;;;;15.87;63.94;100805.13;5015228;28;20033;-80
2022/06/19 01:42:48;;;;;;;5.53;1.42;;;;;;;15.84;64.08;100802.56;4997929;28;20399;-80
2022/06/19 01:45:14;;;;;;;6.07;1.80;;;;;;;15.81;64.36;100797.41;4997659;28;20033;-80
2022/06/19 01:47:41;;;;;;;8.10;1.90;;;;;;;15.84;65.19;100792.91;4998878;28;20080;-80
2022/06/19 01:50:11;;;;;;;9.27;1.73;;;;;;;15.84;64.17;100782.38;4998544;28;20026;-79
2022/06/19 01:52:36;;;;;;;9.10;1.65;;;;;;;15.85;64.94;100783.22;4997686;28;20037;-80
2022/06/19 01:55:19;;;;;;;7.10;2.22;;;;;;;15.87;65.04;100779.63;4997722;28;20026;-80
2022/06/19 01:57:48;;;;;;;8.57;2.20;;;;;;;15.87;63.93;100778.78;4998962;28;20026;-80
2022/06/19 02:00:17;;;;;;;12.30;2.42;;;;;;;15.83;63.85;100785.06;4999188;28;20032;-79
2022/06/19 02:02:45;;;;;;;8.13;2.10;;;;;;;15.81;64.24;100786.88;4997850;28;20059;-80
2022/06/19 02:05:11;;;;;;;14.82;2.90;;;;;;;15.79;63.90;100783.41;4997879;28;20057;-80
2022/06/19 02:07:36;;;;;;;7.82;2.05;;;;;;;15.77;64.51;100787.88;4997797;28;20487;-80
2022/06/19 02:10:03;;;;;;;11.23;1.88;;;;;;;15.76;64.53;100783.53;4998121;28;20022;-80
2022/06/19 02:12:29;;;;;;;6.60;2.00;;;;;;;15.76;65.83;100768.59;4997566;28;20037;-80
2022/06/19 02:14:55;;;;;;;7.55;1.67;;;;;;;15.79;65.93;100762.34;4997484;28;20081;-80
2022/06/19 02:17:35;;;;;;;8.82;2.17;;;;;;;15.79;65.35;100749.16;4996980;28;20021;-80
2022/06/19 02:20:00;;;;;;;7.22;2.08;;;;;;;15.81;66.83;100739.47;4996210;28;20036;-80
2022/06/19 02:22:26;;;;;;;6.25;2.00;;;;;;;15.85;66.81;100733.19;4997143;28;20022;-80
2022/06/19 02:24:51;;;;;;;8.02;1.90;;;;;;;15.88;67.68;100711.97;5014358;28;20377;-80
2022/06/19 02:27:17;;;;;;;9.60;2.15;;;;;;;15.91;67.53;100714.53;4997507;28;20029;-80
2022/06/19 02:29:43;;;;;;;12.63;2.88;;;;;;;15.92;66.94;100703.03;4996881;28;20443;-80
2022/06/19 02:32:24;;;;;;;5.47;2.00;;;;;;;15.96;67.54;100688.00;4996903;28;20520;-80
2022/06/19 02:34:50;;;;;;;8.90;2.42;;;;;;;15.99;67.68;100669.44;4997273;28;20498;-80
2022/06/19 02:37:21;;;;;;;5.03;1.80;;;;;;;15.99;67.74;100654.50;4997046;28;20022;-80
2022/06/19 02:40:08;;;;;;;11.18;2.13;;;;;;;15.99;67.19;100653.63;4997745;28;20467;-79
2022/06/19 02:42:37;;;;;;;14.10;2.97;;;;;;;15.97;67.03;100658.94;5015076;28;20483;-80
2022/06/19 02:45:07;;;;;;;11.75;2.17;;;;;;;15.95;66.71;100637.09;4996724;28;20541;-80
2022/06/19 02:47:34;;;;;;;7.65;2.33;;;;;;;15.96;67.49;100612.44;4996648;28;20022;-80
2022/06/19 02:50:00;;;;;;;7.50;2.05;;;;;;;15.95;67.25;100597.59;4996548;28;20022;-80
2022/06/19 02:52:26;;;;;;;12.68;2.30;;;;;;;15.93;67.36;100598.56;4996662;28;20028;-80
2022/06/19 02:54:51;;;;;;;9.75;2.35;;;;;;;15.90;66.53;100594.28;4996166;28;20034;-80
2022/06/19 02:57:17;;;;;;;7.13;2.30;;;;;;;15.88;67.13;100593.47;5012758;28;20430;-79
2022/06/19 02:59:43;;;;;;;7.75;2.50;;;;;;;15.89;68.71;100589.91;4996330;28;20029;-80
2022/06/19 03:02:10;;;;;;;10.40;2.30;;;;;;;15.91;68.48;100566.13;4996548;28;20030;-80
2022/06/19 03:04:41;;;;;;;9.23;2.30;;;;;;;15.90;67.98;100570.56;4996244;28;20022;-80
2022/06/19 03:07:06;;;;;;;7.13;2.63;;;;;;;15.89;67.65;100568.84;4996962;28;20026;-80
2022/06/19 03:09:32;;;;;;;10.30;3.08;;;;;;;15.85;67.56;100577.78;4996988;28;20048;-80
2022/06/19 03:11:57;;;;;;;8.23;2.60;;;;;;;15.80;67.68;100579.75;5013150;28;20033;-80
2022/06/19 03:14:24;;;;;;;9.77;2.40;;;;;;;15.79;68.11;100577.97;4996499;28;20028;-80
2022/06/19 03:16:49;;;;;;;14.98;2.50;;;;;;;15.79;68.56;100577.97;4996280;28;20047;-80
2022/06/19 03:19:15;;;;;;;12.40;2.63;;;;;;;15.77;68.03;100591.22;4996011;28;20053;-80
2022/06/19 03:21:41;;;;;;;14.77;2.97;;;;;;;15.72;66.10;100601.94;5030145;28;20113;-80
2022/06/19 03:24:07;;;;;;;10.45;2.42;;;;;;;15.66;65.86;100625.03;4998799;28;20516;-80
2022/06/19 03:26:32;;;;;;;9.82;1.90;;;;;;;15.58;64.45;100633.19;5015034;28;20056;-80
2022/06/19 03:28:58;;;;;;;6.13;1.77;;;;;;;15.47;65.67;100645.91;4996539;28;20501;-80
2022/06/19 03:31:26;;;;;;;11.52;2.15;;;;;;;15.45;65.58;100668.81;4999275;28;20390;-80
2022/06/19 03:33:52;;;;;;;8.48;2.30;;;;;;;15.37;65.58;100683.09;4997229;28;20057;-80
2022/06/19 03:36:18;;;;;;;15.02;2.50;;;;;;;15.33;65.74;100673.59;4998008;28;20487;-79
2022/06/19 03:38:44;;;;;;;12.27;2.67;;;;;;;15.30;65.93;100673.72;4998147;28;20603;-79
2022/06/19 03:41:09;;;;;;;12.48;2.42;;;;;;;15.29;65.19;100664.09;4998275;28;20029;-80
2022/06/19 03:43:35;;;;;;;10.82;2.45;;;;;;;15.28;65.17;100666.78;4997689;28;20021;-80
2022/06/19 03:46:02;;;;;;;10.65;2.00;;;;;;;15.27;64.33;100672.97;4998570;28;20037;-80
2022/06/19 03:48:27;;;;;;;10.77;2.75;;;;;;;15.24;65.02;100671.28;4999095;28;20388;-80
2022/06/19 03:50:53;;;;;;;12.60;2.47;;;;;;;15.22;65.46;100678.41;5014130;28;20032;-80
2022/06/19 03:55:54;;;;;;;12.50;2.85;;;;;;;15.17;67.49;100660.16;5051629;28;20044;-82
2022/06/19 03:58:19;;;;;;;12.77;2.63;;;;;;;15.20;67.98;100646.00;5051746;28;20021;-82
2022/06/19 04:00:45;;;;;;;11.70;2.58;;;;;;;15.19;68.66;100631.16;5035056;28;20036;-82
2022/06/19 04:03:10;;;;;;;11.77;2.60;;;;;;;15.18;68.48;100613.66;5035184;28;20016;-82
2022/06/19 04:05:36;;;;;;;9.95;2.28;;;;;;;15.19;69.22;100623.28;5034993;28;20024;-82
2022/06/19 04:08:01;;;;;;;12.27;2.55;;;;;;;15.21;69.44;100613.53;5034770;28;20021;-82
2022/06/19 04:10:27;;;;;;;16.88;2.60;;;;;;;15.22;69.06;100604.72;5034899;28;20036;-82
2022/06/19 04:12:53;;;;;;;8.63;2.28;;;;;;;15.25;69.64;100616.91;5035105;28;20446;-82
2022/06/19 04:15:19;;;;;;;9.02;2.65;;;;;;;15.26;68.40;100606.34;5034856;28;20061;-82
2022/06/19 04:17:44;;;;;;;10.75;2.42;;;;;;;15.23;68.36;100609.09;5034786;28;20056;-82
2022/06/19 04:20:11;;;;;;;9.90;2.00;;;;;;;15.26;66.64;100605.47;5035173;28;20021;-82
2022/06/19 04:22:37;;;;;;;8.65;2.08;;;;;;;15.24;67.70;100608.16;5034989;28;20024;-82
2022/06/19 04:25:13;;;;;;;14.55;2.70;;;;;;;15.27;67.51;100597.53;5035164;28;20021;-82
2022/06/19 04:27:39;;;;;;;9.00;2.42;;;;;;;15.29;66.95;100595.69;5035594;28;20529;-82
2022/06/19 04:30:05;;;;;;;9.25;2.05;;;;;;;15.31;67.23;100583.34;5034996;28;20029;-82
2022/06/19 04:32:31;;;;;;;10.70;2.80;;;;;;;15.31;66.66;100578.06;5034813;28;20028;-82
2022/06/19 04:34:56;;;;;;;13.68;2.40;;;;;;;15.33;66.56;100573.59;5034799;28;20032;-82
2022/06/19 04:37:22;;;;;;;11.05;2.45;;;;;;;15.32;66.93;100563.97;5051409;28;20370;-82
2022/06/19 04:39:47;;;;;;;8.60;2.30;;;;;;;15.31;67.79;100559.66;5036284;28;20170;-82
2022/06/19 04:42:13;;;;;;;10.25;2.80;;;;;;;15.35;68.15;100556.00;5038800;28;20364;-82
2022/06/19 04:44:38;;;;;;;9.15;2.53;;;;;;;15.38;67.86;100547.13;5038424;28;20044;-82
2022/06/19 04:47:05;;;;;;;8.95;2.30;;;;;;;15.46;67.39;100544.16;5038717;28;20025;-82
2022/06/19 04:49:30;;;;;;;11.55;2.35;;;;;;;15.51;67.06;100542.22;5038908;28;20036;-82
2022/06/19 04:51:56;;;;;;;10.05;2.00;;;;;;;15.51;64.83;100529.06;5038952;28;20108;-82
2022/06/19 04:54:21;;;;;;;12.00;2.25;;;;;;;15.54;65.71;100528.94;5038534;28;20024;-82
2022/06/19 04:56:46;;;;;;;10.65;2.15;;;;;;;15.55;64.91;100538.56;5038791;28;20024;-82
2022/06/19 04:59:12;;;;;;;9.13;2.28;;;;;;;15.56;66.29;100529.75;5038066;28;20033;-82
2022/06/19 05:01:39;;;;;;;11.20;2.40;;;;;;;15.54;65.20;100536.84;5038562;28;20021;-82
2022/06/19 05:04:07;;;;;;;10.48;2.45;;;;;;;15.52;65.85;100525.53;5038551;28;20038;-82
2022/06/19 05:06:33;;;;;;;8.85;2.38;;;;;;;15.51;66.45;100521.16;5038350;28;20025;-82
2022/06/19 05:08:58;;;;;;;9.23;2.45;;;;;;;15.48;66.46;100527.41;5038293;28;20036;-82
2022/06/19 05:11:25;;;;;;;11.45;2.80;;;;;;;15.48;67.77;100519.50;5038241;28;20108;-82
2022/06/19 05:13:51;;;;;;;10.38;2.60;;;;;;;15.48;67.82;100532.66;5038305;28;20113;-82
2022/06/19 05:16:19;;;;;;;13.00;2.20;;;;;;;15.48;67.51;100580.06;5038593;28;20490;-82
2022/06/19 05:18:44;;;;;;;11.35;2.42;;;;;;;15.46;67.08;100612.59;5038361;28;20131;-82
2022/06/19 05:21:11;;;;;;;8.05;2.08;;;;;;;15.44;67.08;100630.25;5038044;28;20053;-82
2022/06/19 05:23:44;;;;;;;6.80;2.05;;;;;;;15.38;68.13;100612.91;5038008;28;20120;-82
2022/06/19 05:26:20;;;;;;;10.73;2.88;;;;;;;15.35;68.41;100608.63;5038208;28;20025;-82
2022/06/19 05:28:48;;;;;;;15.20;2.47;;;;;;;15.37;68.05;100625.19;5038409;28;20021;-82
2022/06/19 05:31:13;;;;;;;8.45;2.55;;;;;;;15.37;68.14;100624.34;5038449;28;20091;-82
2022/06/19 05:33:39;;;;;;;15.35;2.72;;;;;;;15.36;68.53;100618.22;5037890;28;20032;-82
2022/06/19 05:36:04;;;;;;;8.60;2.30;;;;;;;15.36;68.89;100597.16;5054640;28;20107;-82
2022/06/19 05:38:30;;;;;;;8.95;2.53;;;;;;;15.37;68.75;100588.34;5038844;28;20108;-82
2022/06/19 05:40:57;;;;;;;7.15;2.38;;;;;;;15.37;69.32;100588.34;5039085;28;20120;-82
2022/06/19 05:43:24;;;;;;;13.57;3.05;;;;;;;15.37;69.40;100576.97;5037594;28;20024;-82
2022/06/19 05:45:54;;;;;;;10.90;3.00;;;;;;;15.38;69.84;100571.66;5037505;28;20025;-82
2022/06/19 05:48:20;;;;;;;11.57;2.75;;;;;;;15.44;70.10;100573.19;5037423;28;20033;-82
2022/06/19 05:50:45;;;;;;;15.98;3.00;;;;;;;15.50;68.99;100580.88;5036559;28;20032;-82
2022/06/19 05:53:11;;;;;;;11.45;2.10;;;;;;;15.52;68.03;100612.38;5054156;28;20151;-82
2022/06/19 05:55:37;;;;;;;12.00;2.70;;;;;;;15.55;68.77;100628.06;5037479;28;20021;-82
2022/06/19 05:58:02;;;;;;;13.00;2.72;;;;;;;15.62;69.03;100642.69;5037410;28;20086;-82
2022/06/19 06:00:28;;;;;;;8.82;2.40;;;;;;;15.69;68.43;100657.38;5037194;28;20118;-82
2022/06/19 06:02:53;;;;;;;9.90;1.92;;;;;;;15.76;68.61;100659.75;5037283;28;20482;-82
2022/06/19 06:05:19;;;;;;;11.25;2.42;;;;;;;15.79;68.24;100654.34;5053490;28;20470;-82
2022/06/19 06:07:44;;;;;;;16.65;3.50;;;;;;;15.85;67.96;100647.09;5053846;28;20028;-82
2022/06/19 06:10:10;;;;;;;14.38;2.90;;;;;;;15.85;66.51;100618.13;5037096;28;20120;-82
2022/06/19 06:12:36;;;;;;;11.35;2.20;;;;;;;15.79;68.06;100599.94;5036887;28;20478;-82
2022/06/19 06:15:01;;;;;;;7.15;2.20;;;;;;;15.78;67.64;100586.81;5037066;28;20035;-82
2022/06/19 06:17:27;;;;;;;8.30;2.17;;;;;;;15.77;68.96;100582.47;5036919;28;20103;-82
2022/06/19 06:19:52;;;;;;;17.88;3.42;;;;;;;15.82;68.06;100609.53;5036702;28;20029;-82
2022/06/19 06:22:18;;;;;;;10.35;2.58;;;;;;;15.86;67.08;100608.47;5036579;28;20021;-82
2022/06/19 06:24:43;;;;;;;8.15;2.28;;;;;;;15.83;67.00;100577.84;5054299;28;20016;-82
2022/06/19 06:27:08;;;;;;;5.28;2.20;;;;;;;15.82;67.51;100578.75;5053975;28;20024;-83
2022/06/19 06:29:34;;;;;;;16.20;2.50;;;;;;;15.86;67.24;100572.44;5036250;28;20390;-84
2022/06/19 06:31:59;;;;;;;6.63;2.10;;;;;;;15.88;67.63;100577.66;5036334;28;20115;-84
2022/06/19 06:34:25;;;;;;;10.60;3.00;;;;;;;15.94;67.34;100561.63;5036589;28;20033;-83
2022/06/19 06:36:50;;;;;;;8.88;2.17;;;;;;;15.97;67.38;100553.59;5036813;28;20024;-84
2022/06/19 06:39:16;;;;;;;9.13;2.42;;;;;;;15.98;67.55;100552.66;5036755;28;20449;-84
2022/06/19 06:41:41;;;;;;;10.30;2.25;;;;;;;15.99;68.21;100548.25;5036612;28;20075;-84
2022/06/19 06:44:13;;;;;;;10.07;2.65;;;;;;;16.03;67.15;100542.81;5036548;28;20057;-84
2022/06/19 06:46:39;;;;;;;15.98;2.80;;;;;;;15.99;67.60;100549.13;5035794;28;20024;-84
2022/06/19 06:49:05;;;;;;;7.22;2.55;;;;;;;15.99;67.08;100551.75;5035729;28;20107;-84
2022/06/19 06:51:31;;;;;;;14.85;2.50;;;;;;;15.96;67.57;100546.59;5035938;28;20033;-84
2022/06/19 06:53:57;;;;;;;7.50;2.28;;;;;;;15.99;68.55;100528.06;5035386;28;20029;-84
2022/06/19 06:56:24;;;;;;;11.63;2.78;;;;;;;16.04;67.89;100527.84;5035819;28;20021;-84
2022/06/19 06:58:49;;;;;;;12.02;2.78;;;;;;;16.14;67.86;100533.59;5035480;28;20074;-84
2022/06/19 07:01:18;;;;;;;5.55;2.10;;;;;;;16.18;67.24;100524.63;5035672;28;20021;-84
2022/06/19 07:03:44;;;;;;;8.75;1.90;;;;;;;16.19;67.58;100498.22;5035422;28;20028;-84
2022/06/19 07:06:13;;;;;;;12.02;2.50;;;;;;;16.20;67.09;100488.53;5035468;28;20124;-85
2022/06/19 07:08:39;;;;;;;8.18;2.60;;;;;;;16.22;67.83;100481.41;5035629;28;20028;-84
2022/06/19 07:11:05;;;;;;;11.65;2.53;;;;;;;16.22;67.02;100481.41;5035264;28;20025;-85
2022/06/19 07:13:30;;;;;;;7.40;2.30;;;;;;;16.23;67.47;100483.13;5035340;28;20028;-82
2022/06/19 07:15:56;;;;;;;6.63;1.73;;;;;;;16.24;67.13;100476.94;5035603;28;20028;-82
2022/06/19 07:18:21;;;;;;;8.35;2.08;;;;;;;16.26;66.86;100477.72;5035640;28;20102;-81
2022/06/19 07:20:47;;;;;;;10.65;2.00;;;;;;;16.29;66.34;100471.47;5035585;28;20072;-81
2022/06/19 07:23:12;;;;;;;9.43;2.25;;;;;;;16.35;66.69;100458.03;5036041;28;20025;-81
2022/06/19 07:25:38;;;;;;;5.15;1.85;;;;;;;16.45;66.74;100461.94;5035148;28;20025;-79
2022/06/19 07:28:04;;;;;;;8.75;2.33;;;;;;;16.52;65.55;100437.06;5035274;28;20024;-79
2022/06/19 07:30:30;;;;;;;5.18;1.75;;;;;;;16.56;64.72;100430.72;5035374;28;20037;-79
2022/06/19 07:32:55;;;;;;;6.20;1.92;;;;;;;16.60;64.67;100434.03;5051876;28;20032;-79
2022/06/19 07:35:22;;;;;;;8.00;2.10;;;;;;;16.64;63.03;100429.50;5035385;28;20470;-79
2022/06/19 07:37:47;;;;;;;7.68;1.83;;;;;;;16.60;62.74;100434.03;5035278;28;20024;-81
2022/06/19 07:40:15;;;;;;;7.07;2.60;;;;;;;16.60;62.91;100444.59;5034882;28;20075;-80
2022/06/19 07:42:42;;;;;;;7.78;1.83;;;;;;;16.62;62.14;100437.47;5035542;28;20032;-81
2022/06/19 07:45:08;;;;;;;4.47;1.85;;;;;;;16.64;62.01;100451.44;5035794;28;20032;-80
2022/06/19 07:50:17;;;;;;;6.25;1.75;;;;;;;16.80;62.65;100443.69;5052154;28;20091;-80
2022/06/19 07:52:45;;;;;;;4.97;1.55;;;;;;;16.94;62.25;100456.25;5034998;28;20037;-80
2022/06/19 07:55:13;;;;;;;8.35;3.55;;;;;;;17.05;61.23;100434.66;5035211;28;20033;-80
2022/06/19 07:57:39;;;;;;;6.15;1.70;;;;;;;17.14;60.51;100436.00;5035141;28;20029;-81
2022/06/19 08:00:09;;;;;;;4.13;1.92;;;;;;;17.14;59.62;100438.63;5035102;28;20115;-80
2022/06/19 08:02:35;;;;;;;5.15;1.83;;;;;;;17.12;60.54;100445.78;5034944;28;20028;-80
2022/06/19 08:05:01;;;;;;;3.83;1.38;;;;;;;17.15;60.24;100472.00;5033827;28;20082;-80
2022/06/19 08:07:28;;;;;;;5.88;1.60;;;;;;;17.15;59.22;100472.88;5035759;28;20458;-80
2022/06/19 08:09:53;;;;;;;6.93;2.10;;;;;;;17.15;58.12;100477.28;5035778;28;20128;-80
2022/06/19 08:12:20;;;;;;;4.82;1.80;;;;;;;17.12;58.12;100470.38;5034286;28;20089;-80
2022/06/19 08:14:45;;;;;;;5.15;1.58;;;;;;;17.11;58.00;100475.72;5034652;28;20025;-80
2022/06/19 08:17:11;;;;;;;3.35;1.52;;;;;;;17.11;59.08;100481.88;5034804;28;20028;-80
2022/06/19 08:19:36;;;;;;;5.63;1.70;;;;;;;17.15;58.59;100466.72;5043595;28;20029;-80
2022/06/19 08:22:02;;;;;;;5.18;1.30;;;;;;;17.20;56.00;100491.13;5031871;28;20044;-80
2022/06/19 08:24:27;;;;;;;3.08;1.30;;;;;;;17.30;56.38;100513.53;5013967;28;20027;-81
2022/06/19 08:27:13;;;;;;;2.22;1.00;;;;;;;17.38;54.69;100510.50;5014669;28;20124;-81
2022/06/19 08:29:38;;;;;;;3.55;1.50;;;;;;;17.45;55.15;100521.63;5030244;28;20049;-89
2022/06/19 08:32:05;;;;;;;2.30;1.25;;;;;;;17.57;55.55;100528.97;5020281;28;20036;-83
2022/06/19 08:34:30;;;;;;;3.35;1.30;;;;;;;17.66;55.11;100531.19;5026310;28;20104;-83
2022/06/19 08:36:56;;;;;;;3.30;1.45;;;;;;;17.75;55.53;100535.16;5034967;28;20075;-88
2022/06/19 08:39:22;;;;;;;4.93;1.25;;;;;;;17.83;55.06;100537.41;5035511;28;20031;-88
2022/06/19 08:41:51;;;;;;;4.35;1.33;;;;;;;17.89;54.85;100548.53;5035373;28;20021;-88
2022/06/19 08:44:27;;;;;;;3.33;1.02;;;;;;;17.90;51.54;100565.25;5051606;28;20033;-88
2022/06/19 08:47:28;;;;;;;3.10;1.10;;;;;;;17.86;49.62;100574.25;5035355;28;20031;-88
2022/06/19 08:50:21;;;;;;;4.00;1.10;;;;;;;17.78;49.94;100565.84;5051549;28;20028;-88
2022/06/19 08:53:23;;;;;;;3.55;1.02;;;;;;;17.70;49.86;100564.44;5049794;28;20274;-88
2022/06/19 08:55:53;;;;;;;3.38;0.95;;;;;;;17.72;49.73;100548.50;5051811;28;20090;-88
2022/06/19 08:58:27;;;;;;;1.40;1.00;;;;;;;17.78;52.27;100539.44;5051917;28;20021;-88
2022/06/19 09:00:58;;;;;;;2.45;1.08;;;;;;;17.85;51.47;100531.13;5051979;28;20017;-88
2022/06/19 09:03:24;;;;;;;2.58;1.30;;;;;;;17.90;49.15;100523.84;5034202;28;20037;-87
2022/06/19 09:05:55;;;;;;;2.15;0.85;;;;;;;17.92;48.04;100537.00;5051637;28;20028;-88
2022/06/19 09:08:54;;;;;;;2.58;0.90;;;;;;;17.99;48.37;100546.34;5035252;28;20540;-87
2022/06/19 09:11:38;;;;;;;2.65;1.02;;;;;;;18.03;49.86;100539.97;5051592;28;20414;-88
2022/06/19 09:14:15;;;;;;;1.98;1.00;;;;;;;18.03;48.33;100547.88;5051701;28;20027;-88
2022/06/19 09:17:00;;;;;;;2.65;1.08;;;;;;;18.04;49.54;100548.75;5051558;28;20017;-88
2022/06/19 09:19:33;;;;;;;;;;;;;;;18.02;48.72;100548.81;5052003;28;20039;-87
2022/06/19 09:22:10;;;;;;;3.03;1.10;;;;;;;18.02;47.82;100542.69;5035681;28;20176;-88
2022/06/19 09:24:57;;;;;;;7.07;1.17;;;;;;;18.02;47.56;100546.16;5050549;28;20048;-89
2022/06/19 09:27:40;;;;;;;3.00;0.90;;;;;;;18.07;49.12;100549.44;5054081;28;20024;-88
2022/06/19 09:30:11;;;;;;;3.85;1.20;;;;;;;18.17;51.78;100557.75;5040443;28;20501;-88
2022/06/19 09:32:53;;;;;;;2.83;0.98;;;;;;;18.29;50.79;100550.16;5040223;28;20041;-88
2022/06/19 09:35:24;;;;;;;3.35;1.20;;;;;;;18.39;49.80;100554.91;5039695;28;20033;-88
2022/06/19 09:37:57;;;;;;;2.30;0.98;;;;;;;18.47;49.83;100553.66;5039373;28;20418;-88
2022/06/19 09:40:29;;;;;;;2.08;1.20;;;;;;;18.51;49.54;100560.50;5038082;28;20025;-87
2022/06/19 09:43:00;;;;;;;5.20;0.90;;;;;;;18.56;46.79;100582.28;5039220;28;20045;-88
2022/06/19 09:45:32;;;;;;;3.08;0.95;;;;;;;18.55;45.25;100601.72;5039458;28;20028;-88
2022/06/19 09:48:14;;;;;;;3.15;0.85;;;;;;;18.58;44.75;100604.19;5039423;28;20497;-88
2022/06/19 09:50:46;;;;;;;2.33;1.00;;;;;;;18.65;45.80;100610.03;5029923;28;20497;-87
2022/06/19 09:53:25;;;;;;;4.10;0.98;;;;;;;18.67;47.96;100616.97;5020526;28;20505;-88
2022/06/19 09:55:55;;;;;;;2.40;1.00;;;;;;;18.67;48.79;100629.34;5020739;28;20091;-87
2022/06/19 09:58:25;;;;;;;3.95;1.40;;;;;;;18.62;51.19;100641.94;5021140;28;20032;-88
2022/06/19 10:00:55;;;;;;;3.17;1.10;;;;;;;18.58;51.06;100630.66;5020461;28;20479;-88
2022/06/19 10:03:50;;;;;;;1.92;0.90;;;;;;;18.50;51.67;100623.13;5020304;28;20045;-87
2022/06/19 10:06:39;;;;;;;4.30;1.20;;;;;;;18.47;51.21;100623.25;5053728;28;20033;-88
2022/06/19 10:09:39;;;;;;;2.13;1.15;;;;;;;18.40;51.99;100638.56;5057064;28;20470;-87
2022/06/19 10:12:07;;;;;;;5.07;1.17;;;;;;;18.33;51.27;100621.31;5023716;28;20040;-87
2022/06/19 10:14:38;;;;;;;1.88;1.00;;;;;;;18.26;51.29;100611.97;5040565;28;20087;-87
2022/06/19 10:17:36;;;;;;;4.43;1.27;;;;;;;18.18;52.61;100612.34;5057304;28;20021;-88
2022/06/19 10:20:20;;;;;;;3.58;1.10;;;;;;;18.19;53.39;100600.00;5048158;28;20405;-88
2022/06/19 10:23:11;;;;;;;3.25;1.42;;;;;;;18.14;51.37;100616.06;5057352;28;20114;-88
2022/06/19 10:26:01;;;;;;;4.18;1.00;;;;;;;18.15;51.76;100606.38;5040031;28;20095;-88
2022/06/19 10:29:01;;;;;;;4.00;1.35;;;;;;;18.12;52.51;100612.66;5040213;28;20024;-87
2022/06/19 10:32:04;;;;;;;4.28;1.30;;;;;;;18.14;54.32;100625.81;5039675;28;20029;-88
2022/06/19 10:34:35;;;;;;;5.50;1.45;;;;;;;18.07;58.21;100626.09;5058447;28;20045;-88
2022/06/19 10:37:09;;;;;;;4.78;1.75;;;;;;;17.97;59.25;100640.69;5056502;28;20466;-87
2022/06/19 10:39:57;;;;;;;3.88;1.70;;;;;;;17.90;60.52;100653.31;5057465;28;20398;-88
2022/06/19 10:42:31;;;;;;;5.63;1.55;;;;;;;17.87;60.83;100656.09;5057361;28;20025;-87
2022/06/19 10:45:12;;;;;;;6.72;1.73;;;;;;;17.85;60.29;100654.47;5039030;28;20056;-88
2022/06/19 10:48:00;;;;;;;3.05;1.52;;;;;;;17.79;61.82;100625.69;5039082;28;20029;-88
2022/06/19 10:50:51;;;;;;;5.00;2.13;;;;;;;17.74;61.30;100632.03;5053303;28;20029;-86
2022/06/19 10:53:19;;;;;;;5.18;2.00;;;;;;;17.74;61.36;100632.03;5050989;28;20032;-84
2022/06/19 10:56:03;;;;;;;4.93;2.17;;;;;;;17.69;60.87;100619.97;5052019;28;20487;-86
2022/06/19 10:58:30;;;;;;;6.57;2.30;;;;;;;17.65;60.53;100628.97;5052545;28;20025;-87
2022/06/19 11:01:01;;;;;;;2.53;1.55;;;;;;;17.63;61.23;100626.41;5035726;28;20522;-86
2022/06/19 11:06:49;;;;;;;4.00;1.63;;;;;;;17.67;60.49;100638.53;5056868;28;20028;-86
2022/06/19 11:09:20;;;;;;;5.38;1.70;;;;;;;17.73;60.84;100643.53;5057214;28;20029;-86
2022/06/19 11:11:46;;;;;;;6.93;2.15;;;;;;;17.78;60.73;100639.81;5041143;28;20025;-86
2022/06/19 11:14:26;;;;;;;3.78;1.50;;;;;;;17.83;60.34;100653.66;5040795;28;20387;-86
2022/06/19 11:16:52;;;;;;;6.38;1.85;;;;;;;17.86;59.62;100656.16;5058517;28;20029;-86
2022/06/19 11:19:43;;;;;;;5.05;1.60;;;;;;;17.85;59.48;100646.53;5058702;28;20029;-85
2022/06/19 11:22:36;;;;;;;4.68;1.70;;;;;;;17.81;59.40;100653.75;5042044;28;20017;-86
2022/06/19 11:25:20;;;;;;;4.15;1.63;;;;;;;17.74;60.79;100655.81;5042079;28;20028;-86
2022/06/19 11:27:56;;;;;;;7.20;2.05;;;;;;;17.67;60.54;100691.38;5057382;28;20111;-85
2022/06/19 11:30:37;;;;;;;3.22;1.48;;;;;;;17.62;61.40;100698.66;5057280;28;20025;-81
2022/06/19 11:33:07;;;;;;;4.18;2.03;;;;;;;17.66;61.50;100675.59;5035511;28;20088;-80
2022/06/19 11:35:42;;;;;;;3.08;1.50;;;;;;;17.66;61.67;100679.09;5035012;28;20560;-81
2022/06/19 11:38:09;;;;;;;4.45;1.60;;;;;;;17.74;62.01;100657.59;5035463;28;20055;-80
2022/06/19 11:40:39;;;;;;;1.88;1.33;;;;;;;17.77;61.66;100654.81;5035513;28;20031;-81
2022/06/19 11:43:07;;;;;;;3.00;1.73;;;;;;;17.80;61.15;100661.75;5035238;28;20036;-81
2022/06/19 11:45:37;;;;;;;3.50;1.73;;;;;;;17.79;61.19;100662.66;5051746;28;20470;-81
2022/06/19 11:48:13;;;;;;;3.80;1.40;;;;;;;17.76;60.82;100662.81;5034742;28;20020;-81